createdAt,value
2023-05-06T00:01:29.304Z,2.53
2023-05-06T00:03:58.960Z,3.10
2023-05-06T00:06:27.533Z,2.50
2023-05-06T00:08:55.563Z,3.03
2023-05-06T00:11:23.590Z,2.87
2023-05-06T00:13:51.582Z,3.20
2023-05-06T00:16:19.702Z,2.70
2023-05-06T00:18:47.696Z,2.63
2023-05-06T00:21:17.113Z,3.33
2023-05-06T00:23:45.066Z,3.00
2023-05-06T00:26:13.078Z,2.83
2023-05-06T00:28:41.049Z,3.13
2023-05-06T00:31:09.690Z,3.60
2023-05-06T00:33:37.733Z,2.80
2023-05-06T00:36:06.191Z,3.47
2023-05-06T00:38:35.757Z,2.60
2023-05-06T00:41:03.873Z,3.00
2023-05-06T00:43:32.180Z,2.90
2023-05-06T00:46:00.354Z,2.53
2023-05-06T00:48:28.543Z,3.60
2023-05-06T00:50:57.097Z,3.23
2023-05-06T00:53:25.426Z,3.20
2023-05-06T00:55:54.948Z,3.20
2023-05-06T00:58:23.069Z,3.23
2023-05-06T01:00:52.355Z,3.10
2023-05-06T01:03:20.993Z,3.00
2023-05-06T01:05:57.311Z,2.87
2023-05-06T01:08:33.567Z,3.10
2023-05-06T01:11:08.767Z,3.60
2023-05-06T01:13:43.838Z,3.60
2023-05-06T01:16:15.578Z,3.07
2023-05-06T01:18:45.455Z,3.30
2023-05-06T01:21:14.634Z,3.20
2023-05-06T01:23:53.510Z,3.10
2023-05-06T01:26:21.573Z,2.63
2023-05-06T01:28:49.658Z,2.67
2023-05-06T01:31:24.884Z,3.17
2023-05-06T01:34:03.868Z,3.00
2023-05-06T01:36:39.858Z,2.97
2023-05-06T01:39:17.715Z,2.50
2023-05-06T01:41:48.219Z,2.70
2023-05-06T01:44:16.808Z,2.87
2023-05-06T01:46:46.218Z,2.80
2023-05-06T01:49:16.970Z,3.10
2023-05-06T01:51:48.877Z,3.23
2023-05-06T01:54:18.596Z,2.87
2023-05-06T01:56:46.660Z,2.90
2023-05-06T01:59:14.760Z,2.90
2023-05-06T02:01:42.774Z,3.20
2023-05-06T02:04:10.929Z,2.80
2023-05-06T02:06:38.966Z,2.77
2023-05-06T02:09:07.044Z,3.07
2023-05-06T02:11:36.549Z,2.87
2023-05-06T02:14:04.581Z,2.60
2023-05-06T02:16:32.866Z,3.23
2023-05-06T02:19:00.968Z,2.13
2023-05-06T02:21:29.586Z,3.33
2023-05-06T02:23:57.561Z,3.27
2023-05-06T02:26:25.556Z,2.87
2023-05-06T02:28:54.839Z,3.37
2023-05-06T02:31:22.935Z,2.97
2023-05-06T02:33:51.135Z,2.73
2023-05-06T02:36:19.108Z,3.10
2023-05-06T02:38:47.056Z,2.60
2023-05-06T02:41:15.099Z,3.23
2023-05-06T02:43:43.250Z,3.00
2023-05-06T02:46:12.803Z,2.80
2023-05-06T02:48:41.986Z,3.43
2023-05-06T02:51:09.981Z,3.00
2023-05-06T02:53:37.980Z,2.60
2023-05-06T02:56:06.698Z,2.67
2023-05-06T02:58:34.718Z,2.83
2023-05-06T03:01:02.750Z,2.47
2023-05-06T03:03:32.218Z,2.77
2023-05-06T03:06:00.260Z,3.10
2023-05-06T03:08:28.306Z,2.63
2023-05-06T03:10:56.307Z,2.80
2023-05-06T03:13:24.464Z,2.47
2023-05-06T03:15:54.078Z,3.20
2023-05-06T03:18:22.148Z,2.60
2023-05-06T03:20:51.708Z,3.03
2023-05-06T03:23:19.744Z,3.10
2023-05-06T03:25:47.760Z,2.80
2023-05-06T03:28:15.788Z,3.33
2023-05-06T03:30:43.817Z,3.13
2023-05-06T03:33:12.208Z,3.80
2023-05-06T03:35:40.208Z,2.97
2023-05-06T03:38:09.616Z,3.00
2023-05-06T03:40:37.756Z,3.47
2023-05-06T03:43:05.767Z,3.40
2023-05-06T03:45:33.860Z,3.20
2023-05-06T03:48:01.861Z,4.23
2023-05-06T03:50:30.118Z,2.87
2023-05-06T03:52:58.386Z,2.87
2023-05-06T03:55:27.889Z,2.50
2023-05-06T03:57:55.867Z,3.27
2023-05-06T04:00:24.093Z,3.50
2023-05-06T04:02:52.189Z,2.97
2023-05-06T04:05:20.443Z,3.40
2023-05-06T04:07:48.491Z,3.20
2023-05-06T04:10:16.580Z,3.27
2023-05-06T04:12:46.053Z,3.07
2023-05-06T04:15:14.123Z,3.40
2023-05-06T04:17:42.237Z,3.20
2023-05-06T04:20:11.522Z,4.07
2023-05-06T04:22:39.699Z,3.10
2023-05-06T04:25:09.244Z,5.27
2023-05-06T04:27:37.566Z,5.03
2023-05-06T04:30:08.431Z,4.93
2023-05-06T04:32:36.580Z,5.20
2023-05-06T04:35:05.021Z,6.30
2023-05-06T04:37:33.415Z,5.67
2023-05-06T04:40:04.216Z,5.00
2023-05-06T04:42:32.507Z,5.00
2023-05-06T04:45:00.777Z,5.33
2023-05-06T04:47:30.177Z,5.17
2023-05-06T04:49:58.437Z,6.17
2023-05-06T04:52:26.800Z,5.20
2023-05-06T04:54:55.020Z,5.70
2023-05-06T04:57:23.062Z,5.07
2023-05-06T04:59:51.060Z,7.20
2023-05-06T05:02:19.040Z,5.90
2023-05-06T05:04:48.451Z,5.90
2023-05-06T05:07:16.442Z,5.40
2023-05-06T05:09:45.499Z,4.90
2023-05-06T05:12:13.568Z,4.17
2023-05-06T05:14:42.615Z,5.33
2023-05-06T05:17:10.710Z,5.20
2023-05-06T05:19:38.784Z,4.80
2023-05-06T05:22:08.127Z,5.00
2023-05-06T05:24:36.328Z,5.30
2023-05-06T05:27:04.305Z,4.53
2023-05-06T05:29:32.415Z,4.67
2023-05-06T05:32:00.683Z,5.70
2023-05-06T05:34:28.749Z,5.73
2023-05-06T05:36:57.519Z,4.77
2023-05-06T05:39:26.870Z,6.00
2023-05-06T05:41:54.976Z,5.80
2023-05-06T05:44:23.081Z,5.47
2023-05-06T05:46:52.116Z,5.83
2023-05-06T05:49:20.379Z,6.27
2023-05-06T05:51:48.518Z,4.33
2023-05-06T05:54:16.771Z,5.07
2023-05-06T05:56:46.358Z,4.83
2023-05-06T05:59:15.954Z,5.50
2023-05-06T06:01:45.555Z,5.20
2023-05-06T06:04:13.635Z,5.87
2023-05-06T06:06:41.704Z,4.30
2023-05-06T06:09:10.727Z,5.57
2023-05-06T06:11:38.781Z,4.80
2023-05-06T06:14:08.195Z,5.80
2023-05-06T06:16:38.203Z,6.47
2023-05-06T06:19:06.586Z,5.40
2023-05-06T06:21:34.692Z,6.37
2023-05-06T06:24:02.799Z,5.10
2023-05-06T06:26:30.764Z,5.60
2023-05-06T06:28:58.796Z,5.23
2023-05-06T06:31:29.338Z,9.80
2023-05-06T06:33:57.538Z,6.30
2023-05-06T06:36:25.528Z,6.17
2023-05-06T06:38:53.532Z,4.10
2023-05-06T06:41:21.518Z,4.53
2023-05-06T06:43:49.612Z,5.10
2023-05-06T06:46:17.830Z,4.50
2023-05-06T06:48:47.332Z,4.73
2023-05-06T06:51:15.418Z,4.90
2023-05-06T06:53:43.946Z,4.50
2023-05-06T06:56:13.040Z,4.70
2023-05-06T06:58:41.059Z,4.67
2023-05-06T07:01:09.184Z,5.23
2023-05-06T07:03:37.245Z,4.70
2023-05-06T07:06:06.769Z,4.23
2023-05-06T07:08:34.773Z,6.07
2023-05-06T07:11:02.773Z,5.00
2023-05-06T07:13:30.817Z,4.70
2023-05-06T07:15:59.355Z,5.03
2023-05-06T07:18:27.337Z,4.30
2023-05-06T07:20:55.346Z,4.00
2023-05-06T07:23:24.619Z,5.30
2023-05-06T07:25:52.651Z,5.00
2023-05-06T07:28:20.963Z,5.50
2023-05-06T07:30:51.365Z,4.37
2023-05-06T07:33:19.492Z,4.77
2023-05-06T07:35:47.470Z,4.57
2023-05-06T07:38:15.398Z,4.67
2023-05-06T07:40:44.759Z,4.53
2023-05-06T07:43:12.665Z,4.70
2023-05-06T07:45:40.651Z,4.90
2023-05-06T07:48:08.623Z,4.73
2023-05-06T07:50:36.928Z,6.20
2023-05-06T07:53:05.105Z,4.80
2023-05-06T07:55:35.107Z,4.10
2023-05-06T07:58:04.674Z,4.40
2023-05-06T08:00:32.887Z,4.70
2023-05-06T08:03:00.936Z,4.43
2023-05-06T08:05:29.021Z,4.57
2023-05-06T08:07:57.043Z,4.97
2023-05-06T08:10:25.065Z,4.30
2023-05-06T08:12:53.046Z,5.80
2023-05-06T08:15:22.414Z,4.43
2023-05-06T08:17:50.350Z,4.60
2023-05-06T08:20:18.473Z,5.37
2023-05-06T08:22:46.439Z,4.57
2023-05-06T08:25:14.391Z,4.40
2023-05-06T08:27:42.293Z,4.07
2023-05-06T08:30:11.207Z,4.73
2023-05-06T08:32:40.945Z,4.77
2023-05-06T08:35:09.867Z,3.70
2023-05-06T08:37:38.087Z,4.03
2023-05-06T08:40:08.987Z,4.80
2023-05-06T08:42:38.412Z,3.50
2023-05-06T08:45:08.000Z,4.20
2023-05-06T08:47:36.067Z,3.57
2023-05-06T08:50:05.870Z,3.77
2023-05-06T08:52:34.375Z,3.60
2023-05-06T08:55:05.209Z,4.00
2023-05-06T08:57:35.935Z,4.97
2023-05-06T09:00:04.899Z,3.77
2023-05-06T09:02:33.043Z,4.23
2023-05-06T09:05:01.730Z,4.00
2023-05-06T09:07:31.054Z,4.30
2023-05-06T09:09:59.057Z,4.00
2023-05-06T09:12:26.986Z,5.77
2023-05-06T09:14:56.005Z,4.80
2023-05-06T09:17:26.685Z,3.50
2023-05-06T09:19:57.286Z,3.50
2023-05-06T09:22:26.742Z,3.83
2023-05-06T09:24:57.563Z,4.80
2023-05-06T09:27:27.138Z,4.10
2023-05-06T09:30:02.674Z,4.00
2023-05-06T09:32:30.953Z,3.57
2023-05-06T09:34:59.044Z,3.40
2023-05-06T09:37:27.471Z,3.70
2023-05-06T09:39:58.898Z,4.10
2023-05-06T09:42:28.675Z,3.67
2023-05-06T09:45:00.517Z,3.70
2023-05-06T09:47:35.767Z,4.17
2023-05-06T09:50:05.364Z,3.93
2023-05-06T09:52:33.316Z,5.63
2023-05-06T09:55:04.491Z,3.40
2023-05-06T09:57:33.832Z,4.73
2023-05-06T10:00:03.510Z,3.70
2023-05-06T10:02:32.240Z,3.00
2023-05-06T10:05:01.926Z,3.43
2023-05-06T10:07:30.728Z,3.77
2023-05-06T10:10:00.271Z,3.17
2023-05-06T10:12:30.155Z,3.63
2023-05-06T10:14:58.266Z,3.20
2023-05-06T10:17:27.054Z,3.10
2023-05-06T10:19:59.055Z,4.30
2023-05-06T10:22:39.206Z,3.23
2023-05-06T10:25:17.018Z,4.70
2023-05-06T10:27:47.144Z,3.47
2023-05-06T10:30:17.032Z,4.93
2023-05-06T10:32:46.458Z,3.20
2023-05-06T10:35:21.545Z,3.80
2023-05-06T10:37:51.672Z,3.77
2023-05-06T10:40:20.566Z,3.60
2023-05-06T10:42:51.210Z,4.20
2023-05-06T10:45:19.190Z,3.23
2023-05-06T10:48:08.685Z,2.67
2023-05-06T10:50:36.672Z,3.53
2023-05-06T10:53:04.691Z,3.90
2023-05-06T10:55:34.182Z,3.67
2023-05-06T10:58:05.598Z,3.47
2023-05-06T11:00:34.719Z,3.43
2023-05-06T11:03:04.656Z,3.67
2023-05-06T11:05:32.777Z,3.53
2023-05-06T11:08:11.307Z,3.07
2023-05-06T11:10:39.383Z,3.47
2023-05-06T11:13:26.552Z,3.43
2023-05-06T11:15:55.370Z,3.87
2023-05-06T11:18:43.050Z,3.33
2023-05-06T11:21:36.783Z,5.43
2023-05-06T11:24:12.701Z,3.47
2023-05-06T11:26:44.204Z,4.57
2023-05-06T11:29:16.226Z,3.50
2023-05-06T11:31:45.256Z,3.17
2023-05-06T11:34:19.757Z,3.30
2023-05-06T11:36:55.350Z,3.27
2023-05-06T11:39:23.262Z,3.23
2023-05-06T11:41:53.314Z,2.80
2023-05-06T11:44:30.852Z,3.60
2023-05-06T11:47:00.146Z,3.33
2023-05-06T11:49:28.513Z,3.90
2023-05-06T11:51:58.035Z,3.23
2023-05-06T11:54:28.252Z,5.50
2023-05-06T11:56:58.049Z,3.17
2023-05-06T11:59:32.067Z,4.07
2023-05-06T12:02:01.886Z,3.50
2023-05-06T12:04:37.740Z,3.03
2023-05-06T12:07:07.537Z,3.70
2023-05-06T12:09:37.060Z,3.83
2023-05-06T12:12:05.814Z,4.07
2023-05-06T12:14:36.185Z,4.00
2023-05-06T12:17:04.760Z,6.07
2023-05-06T12:19:34.001Z,3.70
2023-05-06T12:22:16.037Z,3.73
2023-05-06T12:24:44.006Z,3.40
2023-05-06T12:27:12.000Z,4.73
2023-05-06T12:29:41.481Z,3.40
2023-05-06T12:32:11.127Z,3.40
2023-05-06T12:34:40.211Z,4.10
2023-05-06T12:37:08.854Z,3.43
2023-05-06T12:39:37.723Z,3.60
2023-05-06T12:42:06.928Z,5.00
2023-05-06T12:44:36.939Z,4.30
2023-05-06T12:47:08.530Z,4.00
2023-05-06T12:49:50.941Z,3.07
2023-05-06T12:52:20.406Z,3.40
2023-05-06T12:54:49.195Z,2.90
2023-05-06T12:57:17.741Z,3.80
2023-05-06T12:59:46.434Z,3.30
2023-05-06T13:02:16.245Z,4.17
2023-05-06T13:04:45.326Z,3.30
2023-05-06T13:07:13.221Z,4.30
2023-05-06T13:09:41.158Z,3.30
2023-05-06T13:12:09.143Z,3.63
2023-05-06T13:14:39.872Z,3.60
2023-05-06T13:17:08.776Z,3.80
2023-05-06T13:19:38.177Z,3.80
2023-05-06T13:22:06.167Z,3.37
2023-05-06T13:24:34.081Z,4.30
2023-05-06T13:27:02.320Z,3.47
2023-05-06T13:29:30.523Z,4.10
2023-05-06T13:31:58.716Z,3.80
2023-05-06T13:34:26.805Z,4.13
2023-05-06T13:36:56.778Z,4.53
2023-05-06T13:39:25.044Z,4.87
2023-05-06T13:41:54.232Z,5.00
2023-05-06T13:44:22.743Z,3.87
2023-05-06T13:46:50.910Z,4.50
2023-05-06T13:49:20.762Z,3.80
2023-05-06T13:51:48.848Z,4.33
2023-05-06T13:54:18.172Z,3.67
2023-05-06T13:56:46.277Z,4.70
2023-05-06T13:59:14.283Z,4.13
2023-05-06T14:01:43.012Z,4.20
2023-05-06T14:04:11.138Z,3.50
2023-05-06T14:06:39.294Z,3.90
2023-05-06T14:09:11.771Z,4.30
2023-05-06T14:11:40.984Z,4.23
2023-05-06T14:14:09.236Z,3.90
2023-05-06T14:16:37.678Z,4.27
2023-05-06T14:19:05.851Z,7.40
2023-05-06T14:21:34.602Z,4.80
2023-05-06T14:24:04.286Z,4.70
2023-05-06T14:26:33.724Z,3.50
2023-05-06T14:29:03.059Z,4.40
2023-05-06T14:31:31.017Z,3.50
2023-05-06T14:33:58.981Z,4.70
2023-05-06T14:36:26.897Z,3.50
2023-05-06T14:38:54.855Z,3.70
2023-05-06T14:41:22.927Z,4.07
2023-05-06T14:43:50.900Z,3.60
2023-05-06T14:46:20.459Z,4.97
2023-05-06T14:48:48.448Z,4.70
2023-05-06T14:51:16.377Z,3.70
2023-05-06T14:53:44.278Z,3.67
2023-05-06T14:56:12.276Z,5.23
2023-05-06T14:58:40.277Z,4.57
2023-05-06T15:01:08.342Z,4.87
2023-05-06T15:03:37.694Z,4.43
2023-05-06T15:06:06.178Z,4.43
2023-05-06T15:08:34.362Z,3.70
2023-05-06T15:11:04.336Z,4.70
2023-05-06T15:13:32.450Z,3.97
2023-05-06T15:16:00.506Z,4.30
2023-05-06T15:18:28.392Z,4.37
2023-05-06T15:21:01.397Z,4.20
2023-05-06T15:23:29.461Z,4.20
2023-05-06T15:25:58.520Z,4.10
2023-05-06T15:28:26.479Z,4.17
2023-05-06T15:30:54.381Z,4.43
2023-05-06T15:33:22.508Z,3.73
2023-05-06T15:35:50.501Z,4.30
2023-05-06T15:38:19.818Z,3.87
2023-05-06T15:40:51.940Z,4.43
2023-05-06T15:43:24.054Z,6.17
2023-05-06T15:45:53.007Z,4.20
2023-05-06T15:48:21.027Z,3.97
2023-05-06T15:50:49.006Z,4.20
2023-05-06T15:53:16.945Z,4.13
2023-05-06T15:55:54.553Z,3.90
2023-05-06T15:58:25.297Z,4.47
2023-05-06T16:00:53.322Z,4.57
2023-05-06T16:03:21.421Z,3.70
2023-05-06T16:05:49.699Z,4.10
2023-05-06T16:08:17.610Z,6.00
2023-05-06T16:10:47.682Z,6.73
2023-05-06T16:13:15.693Z,9.23
2023-05-06T16:15:43.890Z,9.33
2023-05-06T16:18:12.123Z,5.53
2023-05-06T16:20:40.125Z,3.77
2023-05-06T16:23:08.359Z,4.30
2023-05-06T16:25:38.191Z,4.87
2023-05-06T16:28:09.827Z,4.70
2023-05-06T16:30:37.890Z,4.70
2023-05-06T16:33:06.133Z,4.40
2023-05-06T16:35:34.532Z,3.97
2023-05-06T16:38:02.465Z,5.43
2023-05-06T16:40:31.144Z,4.53
2023-05-06T16:42:59.058Z,5.83
2023-05-06T16:45:28.364Z,5.07
2023-05-06T16:47:56.299Z,3.87
2023-05-06T16:50:24.231Z,4.60
2023-05-06T16:52:52.630Z,4.17
2023-05-06T16:55:21.861Z,5.10
2023-05-06T16:57:50.148Z,5.00
2023-05-06T17:00:19.007Z,4.93
2023-05-06T17:02:48.429Z,6.40
2023-05-06T17:05:16.685Z,6.27
2023-05-06T17:07:44.675Z,5.20
2023-05-06T17:10:13.317Z,5.40
2023-05-06T17:12:42.135Z,5.27
2023-05-06T17:15:10.989Z,5.07
2023-05-06T17:17:39.946Z,5.13
2023-05-06T17:20:10.780Z,5.30
2023-05-06T17:22:39.119Z,5.60
2023-05-06T17:25:08.259Z,6.10
2023-05-06T17:27:36.512Z,5.00
2023-05-06T17:30:05.055Z,4.20
2023-05-06T17:32:33.110Z,5.63
2023-05-06T17:35:01.216Z,4.63
2023-05-06T17:37:31.028Z,5.00
2023-05-06T17:39:59.192Z,5.90
2023-05-06T17:42:27.546Z,4.87
2023-05-06T17:44:55.755Z,5.17
2023-05-06T17:47:24.124Z,5.00
2023-05-06T17:49:54.138Z,5.00
2023-05-06T17:52:22.347Z,5.70
2023-05-06T17:55:05.654Z,4.80
2023-05-06T17:57:39.084Z,4.60
2023-05-06T18:00:09.237Z,6.73
2023-05-06T18:02:37.460Z,12.03
2023-05-06T18:05:06.432Z,11.23
2023-05-06T18:07:35.947Z,5.00
2023-05-06T18:10:05.805Z,5.30
2023-05-06T18:12:33.841Z,4.97
2023-05-06T18:15:02.342Z,4.33
2023-05-06T18:17:30.273Z,4.67
2023-05-06T18:19:58.302Z,5.20
2023-05-06T18:22:26.470Z,5.50
2023-05-06T18:24:55.307Z,3.03
2023-05-06T18:27:25.142Z,1.50
2023-05-06T18:29:53.437Z,2.20
2023-05-06T18:32:21.474Z,1.70
2023-05-06T18:34:49.407Z,2.03
2023-05-06T18:37:17.345Z,2.37
2023-05-06T18:39:45.560Z,2.10
2023-05-06T18:42:13.770Z,2.63
2023-05-06T18:44:43.568Z,2.60
2023-05-06T18:47:11.536Z,2.53
2023-05-06T18:49:39.458Z,2.20
2023-05-06T18:52:07.412Z,2.40
2023-05-06T18:54:35.475Z,2.40
2023-05-06T18:57:04.168Z,2.27
2023-05-06T18:59:32.210Z,2.40
2023-05-06T19:02:03.768Z,3.60
2023-05-06T19:04:32.446Z,3.90
2023-05-06T19:07:01.169Z,2.70
2023-05-06T19:09:29.284Z,4.40
2023-05-06T19:11:57.205Z,3.00
2023-05-06T19:14:25.647Z,2.97
2023-05-06T19:16:54.147Z,2.30
2023-05-06T19:19:23.554Z,3.40
2023-05-06T19:21:51.552Z,2.60
2023-05-06T19:24:19.641Z,2.90
2023-05-06T19:26:47.628Z,2.80
2023-05-06T19:29:15.690Z,2.70
2023-05-06T19:31:43.740Z,2.33
2023-05-06T19:34:11.768Z,2.70
2023-05-06T19:36:40.939Z,2.40
2023-05-06T19:39:08.911Z,2.40
2023-05-06T19:41:36.985Z,2.43
2023-05-06T19:44:05.368Z,7.60
2023-05-06T19:46:33.308Z,6.87
2023-05-06T19:49:01.330Z,3.60
2023-05-06T19:51:29.374Z,2.77
2023-05-06T19:53:58.742Z,2.90
2023-05-06T19:56:26.673Z,2.40
2023-05-06T19:58:54.691Z,3.17
2023-05-06T20:01:24.010Z,2.50
2023-05-06T20:03:52.202Z,3.30
2023-05-06T20:06:20.202Z,2.17
2023-05-06T20:08:48.760Z,2.07
2023-05-06T20:11:18.155Z,2.67
2023-05-06T20:13:46.265Z,2.30
2023-05-06T20:16:14.249Z,2.80
2023-05-06T20:18:42.873Z,2.43
2023-05-06T20:21:10.836Z,3.47
2023-05-06T20:23:38.804Z,2.97
2023-05-06T20:26:06.746Z,2.63
2023-05-06T20:28:39.047Z,2.60
2023-05-06T20:31:07.371Z,3.00
2023-05-06T20:33:35.510Z,2.53
2023-05-06T20:36:04.019Z,2.67
2023-05-06T20:38:32.068Z,2.47
2023-05-06T20:41:02.768Z,3.20
2023-05-06T20:43:31.715Z,3.73
2023-05-06T20:46:01.098Z,3.00
2023-05-06T20:48:31.194Z,4.00
2023-05-06T20:50:59.215Z,4.80
2023-05-06T20:53:27.421Z,3.40
2023-05-06T20:55:55.709Z,3.60
2023-05-06T20:58:23.695Z,3.90
2023-05-06T21:00:51.864Z,3.87
2023-05-06T21:03:21.493Z,3.17
2023-05-06T21:05:49.697Z,2.93
2023-05-06T21:08:18.119Z,2.47
2023-05-06T21:10:46.101Z,2.90
2023-05-06T21:13:14.215Z,2.40
2023-05-06T21:15:42.217Z,2.50
2023-05-06T21:18:10.296Z,3.37
2023-05-06T21:20:39.660Z,6.43
2023-05-06T21:23:07.511Z,6.77
2023-05-06T21:25:35.413Z,4.73
2023-05-06T21:28:06.132Z,2.57
2023-05-06T21:30:36.488Z,2.80
2023-05-06T21:33:05.089Z,2.40
2023-05-06T21:35:33.166Z,2.53
2023-05-06T21:38:02.426Z,2.60
2023-05-06T21:40:30.570Z,2.80
2023-05-06T21:42:58.505Z,2.80
2023-05-06T21:45:26.550Z,1.97
2023-05-06T21:47:54.667Z,2.50
2023-05-06T21:50:22.730Z,2.37
2023-05-06T21:52:50.669Z,2.00
2023-05-06T21:55:20.283Z,2.50
2023-05-06T21:57:48.448Z,2.80
2023-05-06T22:00:17.286Z,2.77
2023-05-06T22:02:46.320Z,2.70
2023-05-06T22:05:14.456Z,3.17
2023-05-06T22:07:42.466Z,3.37
2023-05-06T22:10:10.920Z,2.97
2023-05-06T22:12:40.229Z,2.17
2023-05-06T22:15:09.522Z,8.07
2023-05-06T22:17:38.009Z,3.17
2023-05-06T22:20:10.802Z,2.30
2023-05-06T22:22:38.947Z,2.57
2023-05-06T22:25:08.004Z,2.53
2023-05-06T22:27:36.610Z,2.50
2023-05-06T22:30:08.066Z,2.23
2023-05-06T22:32:36.215Z,2.50
2023-05-06T22:35:04.256Z,2.67
2023-05-06T22:37:32.243Z,2.33
2023-05-06T22:40:00.189Z,2.33
2023-05-06T22:42:28.169Z,2.60
2023-05-06T22:44:56.119Z,1.83
2023-05-06T22:47:25.583Z,2.33
2023-05-06T22:49:53.533Z,2.33
2023-05-06T22:52:21.521Z,2.50
2023-05-06T22:54:49.636Z,2.20
2023-05-06T22:57:19.022Z,2.63
2023-05-06T22:59:47.265Z,2.83
2023-05-06T23:02:15.200Z,2.57
2023-05-06T23:04:44.525Z,3.03
2023-05-06T23:07:13.946Z,3.23
2023-05-06T23:09:41.934Z,3.03
2023-05-06T23:12:09.878Z,2.73
2023-05-06T23:14:37.872Z,2.70
2023-05-06T23:17:07.172Z,3.67
2023-05-06T23:19:35.236Z,3.50
2023-05-06T23:22:04.577Z,2.80
2023-05-06T23:24:33.121Z,2.70
2023-05-06T23:27:01.152Z,3.20
2023-05-06T23:29:29.076Z,2.60
2023-05-06T23:31:57.063Z,3.83
2023-05-06T23:34:25.021Z,2.87
2023-05-06T23:36:53.003Z,4.03
2023-05-06T23:39:22.389Z,3.50
2023-05-06T23:41:50.331Z,2.73
2023-05-06T23:44:18.726Z,2.97
2023-05-06T23:46:46.770Z,3.13
2023-05-06T23:49:15.229Z,2.80
2023-05-06T23:51:43.195Z,3.20
2023-05-06T23:54:11.157Z,2.67
2023-05-06T23:56:40.705Z,2.30
2023-05-06T23:59:08.818Z,3.30
